sensor_id;sensor_type;location;lat;lon;timestamp;P1;durP1;ratioP1;P2;durP2;ratioP2
22656;SDS011;11495;55.610;12.100;2022-07-22T00:01:41;10.32;;;5.12;;
22656;SDS011;11495;55.610;12.100;2022-07-22T00:04:06;8.82;;;4.80;;
22656;SDS011;11495;55.610;12.100;2022-07-22T00:06:32;7.25;;;4.35;;
22656;SDS011;11495;55.610;12.100;2022-07-22T00:08:57;9.05;;;5.55;;
22656;SDS011;11495;55.610;12.100;2022-07-22T00:11:23;7.43;;;5.07;;
22656;SDS011;11495;55.610;12.100;2022-07-22T00:13:48;6.97;;;4.45;;
22656;SDS011;11495;55.610;12.100;2022-07-22T00:16:14;8.15;;;5.15;;
22656;SDS011;11495;55.610;12.100;2022-07-22T00:18:39;10.30;;;6.05;;
22656;SDS011;11495;55.610;12.100;2022-07-22T00:21:04;10.65;;;5.97;;
22656;SDS011;11495;55.610;12.100;2022-07-22T00:23:30;9.68;;;5.82;;
22656;SDS011;11495;55.610;12.100;2022-07-22T00:25:55;6.85;;;4.85;;
22656;SDS011;11495;55.610;12.100;2022-07-22T00:28:21;8.27;;;4.28;;
22656;SDS011;11495;55.610;12.100;2022-07-22T00:30:46;7.60;;;5.10;;
22656;SDS011;11495;55.610;12.100;2022-07-22T00:33:12;7.07;;;4.75;;
22656;SDS011;11495;55.610;12.100;2022-07-22T00:35:37;6.78;;;4.40;;
22656;SDS011;11495;55.610;12.100;2022-07-22T00:38:03;7.85;;;3.75;;
22656;SDS011;11495;55.610;12.100;2022-07-22T00:40:28;8.82;;;5.25;;
22656;SDS011;11495;55.610;12.100;2022-07-22T00:42:54;8.32;;;4.97;;
22656;SDS011;11495;55.610;12.100;2022-07-22T00:45:19;9.60;;;5.10;;
22656;SDS011;11495;55.610;12.100;2022-07-22T00:47:44;8.30;;;5.47;;
22656;SDS011;11495;55.610;12.100;2022-07-22T00:50:10;6.22;;;4.72;;
22656;SDS011;11495;55.610;12.100;2022-07-22T00:52:36;12.25;;;6.28;;
22656;SDS011;11495;55.610;12.100;2022-07-22T00:55:03;7.18;;;4.70;;
22656;SDS011;11495;55.610;12.100;2022-07-22T00:57:29;6.28;;;4.30;;
22656;SDS011;11495;55.610;12.100;2022-07-22T00:59:55;7.55;;;4.50;;
22656;SDS011;11495;55.610;12.100;2022-07-22T01:02:21;6.90;;;4.55;;
22656;SDS011;11495;55.610;12.100;2022-07-22T01:04:47;5.65;;;4.10;;
22656;SDS011;11495;55.610;12.100;2022-07-22T01:07:12;5.95;;;3.90;;
22656;SDS011;11495;55.610;12.100;2022-07-22T01:09:37;7.22;;;4.72;;
22656;SDS011;11495;55.610;12.100;2022-07-22T01:12:07;7.00;;;4.70;;
22656;SDS011;11495;55.610;12.100;2022-07-22T01:14:33;8.32;;;4.82;;
22656;SDS011;11495;55.610;12.100;2022-07-22T01:16:58;4.50;;;3.20;;
22656;SDS011;11495;55.610;12.100;2022-07-22T01:19:24;6.43;;;3.78;;
22656;SDS011;11495;55.610;12.100;2022-07-22T01:21:49;7.10;;;4.18;;
22656;SDS011;11495;55.610;12.100;2022-07-22T01:24:14;6.97;;;3.40;;
22656;SDS011;11495;55.610;12.100;2022-07-22T01:26:40;7.20;;;3.97;;
22656;SDS011;11495;55.610;12.100;2022-07-22T01:29:06;8.02;;;3.42;;
22656;SDS011;11495;55.610;12.100;2022-07-22T01:31:32;9.90;;;4.32;;
22656;SDS011;11495;55.610;12.100;2022-07-22T01:33:57;8.07;;;3.45;;
22656;SDS011;11495;55.610;12.100;2022-07-22T01:36:23;7.95;;;3.87;;
22656;SDS011;11495;55.610;12.100;2022-07-22T01:38:49;8.10;;;3.75;;
22656;SDS011;11495;55.610;12.100;2022-07-22T01:41:14;10.02;;;3.50;;
22656;SDS011;11495;55.610;12.100;2022-07-22T01:43:39;8.50;;;4.43;;
22656;SDS011;11495;55.610;12.100;2022-07-22T01:46:05;8.02;;;3.50;;
22656;SDS011;11495;55.610;12.100;2022-07-22T01:48:30;8.55;;;3.08;;
22656;SDS011;11495;55.610;12.100;2022-07-22T01:50:56;6.55;;;3.42;;
22656;SDS011;11495;55.610;12.100;2022-07-22T01:53:22;7.43;;;3.00;;
22656;SDS011;11495;55.610;12.100;2022-07-22T01:55:47;6.40;;;3.37;;
22656;SDS011;11495;55.610;12.100;2022-07-22T01:58:13;6.03;;;3.30;;
22656;SDS011;11495;55.610;12.100;2022-07-22T02:00:38;4.85;;;2.53;;
22656;SDS011;11495;55.610;12.100;2022-07-22T02:03:04;6.22;;;2.80;;
22656;SDS011;11495;55.610;12.100;2022-07-22T02:05:30;7.53;;;3.75;;
22656;SDS011;11495;55.610;12.100;2022-07-22T02:07:59;11.27;;;3.42;;
22656;SDS011;11495;55.610;12.100;2022-07-22T02:10:25;14.60;;;3.03;;
22656;SDS011;11495;55.610;12.100;2022-07-22T02:12:50;7.37;;;3.03;;
22656;SDS011;11495;55.610;12.100;2022-07-22T02:15:16;6.45;;;2.78;;
22656;SDS011;11495;55.610;12.100;2022-07-22T02:17:41;10.25;;;3.42;;
22656;SDS011;11495;55.610;12.100;2022-07-22T02:20:07;9.80;;;2.90;;
22656;SDS011;11495;55.610;12.100;2022-07-22T02:22:33;8.75;;;2.72;;
22656;SDS011;11495;55.610;12.100;2022-07-22T02:24:58;5.93;;;3.00;;
22656;SDS011;11495;55.610;12.100;2022-07-22T02:27:23;6.68;;;2.95;;
22656;SDS011;11495;55.610;12.100;2022-07-22T02:29:49;7.15;;;2.17;;
22656;SDS011;11495;55.610;12.100;2022-07-22T02:32:14;4.25;;;2.30;;
22656;SDS011;11495;55.610;12.100;2022-07-22T02:34:39;7.30;;;3.17;;
22656;SDS011;11495;55.610;12.100;2022-07-22T02:37:05;6.57;;;2.22;;
22656;SDS011;11495;55.610;12.100;2022-07-22T02:39:30;10.48;;;3.70;;
22656;SDS011;11495;55.610;12.100;2022-07-22T02:41:56;5.20;;;2.60;;
22656;SDS011;11495;55.610;12.100;2022-07-22T02:44:21;5.90;;;1.83;;
22656;SDS011;11495;55.610;12.100;2022-07-22T02:46:47;9.40;;;2.67;;
22656;SDS011;11495;55.610;12.100;2022-07-22T02:49:12;11.02;;;3.03;;
22656;SDS011;11495;55.610;12.100;2022-07-22T02:51:37;5.20;;;2.25;;
22656;SDS011;11495;55.610;12.100;2022-07-22T02:54:03;6.47;;;2.85;;
22656;SDS011;11495;55.610;12.100;2022-07-22T02:56:30;6.78;;;2.47;;
22656;SDS011;11495;55.610;12.100;2022-07-22T02:58:55;4.03;;;2.03;;
22656;SDS011;11495;55.610;12.100;2022-07-22T03:01:21;6.53;;;2.45;;
22656;SDS011;11495;55.610;12.100;2022-07-22T03:03:46;7.35;;;2.87;;
22656;SDS011;11495;55.610;12.100;2022-07-22T03:06:12;6.53;;;2.30;;
22656;SDS011;11495;55.610;12.100;2022-07-22T03:08:38;7.10;;;2.72;;
22656;SDS011;11495;55.610;12.100;2022-07-22T03:11:03;7.12;;;2.97;;
22656;SDS011;11495;55.610;12.100;2022-07-22T03:13:29;11.75;;;3.80;;
22656;SDS011;11495;55.610;12.100;2022-07-22T03:15:55;8.00;;;3.50;;
22656;SDS011;11495;55.610;12.100;2022-07-22T03:18:20;7.93;;;2.90;;
22656;SDS011;11495;55.610;12.100;2022-07-22T03:20:45;10.05;;;2.85;;
22656;SDS011;11495;55.610;12.100;2022-07-22T03:23:11;5.72;;;3.17;;
22656;SDS011;11495;55.610;12.100;2022-07-22T03:25:36;8.10;;;2.75;;
22656;SDS011;11495;55.610;12.100;2022-07-22T03:28:03;13.02;;;3.22;;
22656;SDS011;11495;55.610;12.100;2022-07-22T03:30:28;7.40;;;3.80;;
22656;SDS011;11495;55.610;12.100;2022-07-22T03:32:54;7.18;;;3.35;;
22656;SDS011;11495;55.610;12.100;2022-07-22T03:35:19;6.10;;;2.60;;
22656;SDS011;11495;55.610;12.100;2022-07-22T03:37:45;17.25;;;4.65;;
22656;SDS011;11495;55.610;12.100;2022-07-22T03:40:10;9.93;;;3.45;;
22656;SDS011;11495;55.610;12.100;2022-07-22T03:42:36;13.52;;;3.45;;
22656;SDS011;11495;55.610;12.100;2022-07-22T03:45:02;6.55;;;3.00;;
22656;SDS011;11495;55.610;12.100;2022-07-22T03:47:27;12.13;;;3.33;;
22656;SDS011;11495;55.610;12.100;2022-07-22T03:49:53;6.15;;;2.90;;
22656;SDS011;11495;55.610;12.100;2022-07-22T03:52:18;9.50;;;3.28;;
22656;SDS011;11495;55.610;12.100;2022-07-22T03:54:44;10.93;;;4.50;;
22656;SDS011;11495;55.610;12.100;2022-07-22T03:57:09;6.82;;;3.55;;
22656;SDS011;11495;55.610;12.100;2022-07-22T03:59:35;6.93;;;2.47;;
22656;SDS011;11495;55.610;12.100;2022-07-22T04:02:00;12.13;;;4.18;;
22656;SDS011;11495;55.610;12.100;2022-07-22T04:04:26;15.40;;;3.42;;
22656;SDS011;11495;55.610;12.100;2022-07-22T04:06:51;7.12;;;3.03;;
22656;SDS011;11495;55.610;12.100;2022-07-22T04:09:17;6.22;;;2.60;;
22656;SDS011;11495;55.610;12.100;2022-07-22T04:11:43;9.57;;;3.30;;
22656;SDS011;11495;55.610;12.100;2022-07-22T04:14:08;8.70;;;3.00;;
22656;SDS011;11495;55.610;12.100;2022-07-22T04:16:34;6.20;;;2.80;;
22656;SDS011;11495;55.610;12.100;2022-07-22T04:19:00;6.45;;;2.75;;
22656;SDS011;11495;55.610;12.100;2022-07-22T04:21:26;11.98;;;3.65;;
22656;SDS011;11495;55.610;12.100;2022-07-22T04:23:52;11.80;;;3.30;;
22656;SDS011;11495;55.610;12.100;2022-07-22T04:26:17;14.55;;;4.40;;
22656;SDS011;11495;55.610;12.100;2022-07-22T04:28:43;9.25;;;3.10;;
22656;SDS011;11495;55.610;12.100;2022-07-22T04:31:08;14.52;;;3.72;;
22656;SDS011;11495;55.610;12.100;2022-07-22T04:33:33;10.35;;;3.47;;
22656;SDS011;11495;55.610;12.100;2022-07-22T04:35:59;8.65;;;3.00;;
22656;SDS011;11495;55.610;12.100;2022-07-22T04:38:26;7.28;;;3.00;;
22656;SDS011;11495;55.610;12.100;2022-07-22T04:40:51;9.52;;;3.50;;
22656;SDS011;11495;55.610;12.100;2022-07-22T04:43:17;10.10;;;3.33;;
22656;SDS011;11495;55.610;12.100;2022-07-22T04:45:42;7.97;;;3.35;;
22656;SDS011;11495;55.610;12.100;2022-07-22T04:48:07;10.68;;;3.53;;
22656;SDS011;11495;55.610;12.100;2022-07-22T04:50:35;13.88;;;4.12;;
22656;SDS011;11495;55.610;12.100;2022-07-22T04:53:01;7.72;;;3.20;;
22656;SDS011;11495;55.610;12.100;2022-07-22T04:55:26;8.43;;;2.75;;
22656;SDS011;11495;55.610;12.100;2022-07-22T04:57:51;10.00;;;3.00;;
22656;SDS011;11495;55.610;12.100;2022-07-22T05:00:17;8.23;;;2.72;;
22656;SDS011;11495;55.610;12.100;2022-07-22T05:02:42;13.10;;;3.40;;
22656;SDS011;11495;55.610;12.100;2022-07-22T05:05:08;6.45;;;3.10;;
22656;SDS011;11495;55.610;12.100;2022-07-22T05:07:33;9.35;;;3.35;;
22656;SDS011;11495;55.610;12.100;2022-07-22T05:09:58;7.53;;;3.25;;
22656;SDS011;11495;55.610;12.100;2022-07-22T05:12:24;9.85;;;3.78;;
22656;SDS011;11495;55.610;12.100;2022-07-22T05:14:49;8.27;;;3.17;;
22656;SDS011;11495;55.610;12.100;2022-07-22T05:17:15;8.10;;;3.20;;
22656;SDS011;11495;55.610;12.100;2022-07-22T05:19:40;7.25;;;3.00;;
22656;SDS011;11495;55.610;12.100;2022-07-22T05:22:06;12.23;;;3.97;;
22656;SDS011;11495;55.610;12.100;2022-07-22T05:24:32;7.22;;;3.28;;
22656;SDS011;11495;55.610;12.100;2022-07-22T05:26:58;7.87;;;2.50;;
22656;SDS011;11495;55.610;12.100;2022-07-22T05:29:23;9.20;;;3.03;;
22656;SDS011;11495;55.610;12.100;2022-07-22T05:31:49;10.60;;;2.80;;
22656;SDS011;11495;55.610;12.100;2022-07-22T05:34:14;8.77;;;3.50;;
22656;SDS011;11495;55.610;12.100;2022-07-22T05:36:39;8.60;;;3.40;;
22656;SDS011;11495;55.610;12.100;2022-07-22T05:39:05;8.55;;;3.58;;
22656;SDS011;11495;55.610;12.100;2022-07-22T05:41:30;14.82;;;4.12;;
22656;SDS011;11495;55.610;12.100;2022-07-22T05:43:56;8.75;;;4.03;;
22656;SDS011;11495;55.610;12.100;2022-07-22T05:46:21;9.93;;;3.30;;
22656;SDS011;11495;55.610;12.100;2022-07-22T05:48:46;6.68;;;2.40;;
22656;SDS011;11495;55.610;12.100;2022-07-22T05:51:12;7.25;;;3.10;;
22656;SDS011;11495;55.610;12.100;2022-07-22T05:53:39;8.32;;;3.40;;
22656;SDS011;11495;55.610;12.100;2022-07-22T05:56:05;7.97;;;3.75;;
22656;SDS011;11495;55.610;12.100;2022-07-22T05:58:31;7.50;;;3.22;;
22656;SDS011;11495;55.610;12.100;2022-07-22T06:00:56;6.18;;;2.47;;
22656;SDS011;11495;55.610;12.100;2022-07-22T06:03:23;8.88;;;4.07;;
22656;SDS011;11495;55.610;12.100;2022-07-22T06:05:49;8.35;;;3.25;;
22656;SDS011;11495;55.610;12.100;2022-07-22T06:08:14;7.90;;;3.10;;
22656;SDS011;11495;55.610;12.100;2022-07-22T06:10:40;8.82;;;2.92;;
22656;SDS011;11495;55.610;12.100;2022-07-22T06:13:05;7.60;;;2.60;;
22656;SDS011;11495;55.610;12.100;2022-07-22T06:15:30;8.70;;;2.33;;
22656;SDS011;11495;55.610;12.100;2022-07-22T06:17:56;5.72;;;2.53;;
22656;SDS011;11495;55.610;12.100;2022-07-22T06:20:21;5.22;;;2.05;;
22656;SDS011;11495;55.610;12.100;2022-07-22T06:22:46;4.97;;;2.60;;
22656;SDS011;11495;55.610;12.100;2022-07-22T06:25:12;6.03;;;2.47;;
22656;SDS011;11495;55.610;12.100;2022-07-22T06:27:37;7.95;;;2.53;;
22656;SDS011;11495;55.610;12.100;2022-07-22T06:30:03;6.35;;;2.40;;
22656;SDS011;11495;55.610;12.100;2022-07-22T06:32:29;3.70;;;1.92;;
22656;SDS011;11495;55.610;12.100;2022-07-22T06:34:54;5.22;;;2.33;;
22656;SDS011;11495;55.610;12.100;2022-07-22T06:37:20;4.35;;;2.30;;
22656;SDS011;11495;55.610;12.100;2022-07-22T06:39:45;6.28;;;2.55;;
22656;SDS011;11495;55.610;12.100;2022-07-22T06:42:12;6.03;;;2.10;;
22656;SDS011;11495;55.610;12.100;2022-07-22T06:44:38;5.47;;;2.55;;
22656;SDS011;11495;55.610;12.100;2022-07-22T06:47:04;6.32;;;2.65;;
22656;SDS011;11495;55.610;12.100;2022-07-22T06:49:29;6.87;;;2.10;;
22656;SDS011;11495;55.610;12.100;2022-07-22T06:51:55;5.15;;;2.62;;
22656;SDS011;11495;55.610;12.100;2022-07-22T06:54:20;5.70;;;2.75;;
22656;SDS011;11495;55.610;12.100;2022-07-22T06:56:46;5.93;;;2.05;;
22656;SDS011;11495;55.610;12.100;2022-07-22T06:59:11;5.47;;;2.25;;
22656;SDS011;11495;55.610;12.100;2022-07-22T07:01:37;3.22;;;1.95;;
22656;SDS011;11495;55.610;12.100;2022-07-22T07:04:02;4.43;;;2.08;;
22656;SDS011;11495;55.610;12.100;2022-07-22T07:06:28;7.25;;;2.15;;
22656;SDS011;11495;55.610;12.100;2022-07-22T07:08:54;3.58;;;2.55;;
22656;SDS011;11495;55.610;12.100;2022-07-22T07:11:19;6.82;;;2.28;;
22656;SDS011;11495;55.610;12.100;2022-07-22T07:13:44;5.20;;;2.33;;
22656;SDS011;11495;55.610;12.100;2022-07-22T07:16:10;4.03;;;2.35;;
22656;SDS011;11495;55.610;12.100;2022-07-22T07:18:35;5.25;;;2.58;;
22656;SDS011;11495;55.610;12.100;2022-07-22T07:21:01;5.05;;;2.72;;
22656;SDS011;11495;55.610;12.100;2022-07-22T07:23:27;4.45;;;2.40;;
22656;SDS011;11495;55.610;12.100;2022-07-22T07:25:53;5.28;;;2.12;;
22656;SDS011;11495;55.610;12.100;2022-07-22T07:28:18;2.40;;;1.60;;
22656;SDS011;11495;55.610;12.100;2022-07-22T07:30:45;2.60;;;1.20;;
22656;SDS011;11495;55.610;12.100;2022-07-22T07:33:10;3.60;;;1.02;;
22656;SDS011;11495;55.610;12.100;2022-07-22T07:35:36;3.67;;;1.40;;
22656;SDS011;11495;55.610;12.100;2022-07-22T07:38:01;3.17;;;1.23;;
22656;SDS011;11495;55.610;12.100;2022-07-22T07:40:27;3.22;;;1.40;;
22656;SDS011;11495;55.610;12.100;2022-07-22T07:42:52;3.60;;;1.73;;
22656;SDS011;11495;55.610;12.100;2022-07-22T07:45:18;3.62;;;1.55;;
22656;SDS011;11495;55.610;12.100;2022-07-22T07:47:43;1.98;;;1.02;;
22656;SDS011;11495;55.610;12.100;2022-07-22T07:50:09;3.08;;;1.75;;
22656;SDS011;11495;55.610;12.100;2022-07-22T07:52:38;2.85;;;1.27;;
22656;SDS011;11495;55.610;12.100;2022-07-22T07:55:06;3.87;;;2.20;;
22656;SDS011;11495;55.610;12.100;2022-07-22T07:57:33;5.60;;;2.35;;
22656;SDS011;11495;55.610;12.100;2022-07-22T08:00:00;4.97;;;2.12;;
22656;SDS011;11495;55.610;12.100;2022-07-22T08:02:25;4.68;;;1.90;;
22656;SDS011;11495;55.610;12.100;2022-07-22T08:04:51;4.30;;;2.00;;
22656;SDS011;11495;55.610;12.100;2022-07-22T08:07:16;5.78;;;2.42;;
22656;SDS011;11495;55.610;12.100;2022-07-22T08:09:42;4.80;;;2.22;;
22656;SDS011;11495;55.610;12.100;2022-07-22T08:12:07;5.82;;;2.10;;
22656;SDS011;11495;55.610;12.100;2022-07-22T08:14:33;4.53;;;2.10;;
22656;SDS011;11495;55.610;12.100;2022-07-22T08:16:59;3.12;;;1.50;;
22656;SDS011;11495;55.610;12.100;2022-07-22T08:19:24;6.82;;;2.60;;
22656;SDS011;11495;55.610;12.100;2022-07-22T08:21:50;4.10;;;2.08;;
22656;SDS011;11495;55.610;12.100;2022-07-22T08:24:15;3.92;;;2.17;;
22656;SDS011;11495;55.610;12.100;2022-07-22T08:26:40;5.82;;;1.90;;
22656;SDS011;11495;55.610;12.100;2022-07-22T08:29:06;3.95;;;1.67;;
22656;SDS011;11495;55.610;12.100;2022-07-22T08:31:35;5.07;;;1.92;;
22656;SDS011;11495;55.610;12.100;2022-07-22T08:34:01;10.13;;;2.87;;
22656;SDS011;11495;55.610;12.100;2022-07-22T08:36:28;4.65;;;2.05;;
22656;SDS011;11495;55.610;12.100;2022-07-22T08:38:53;2.45;;;1.35;;
22656;SDS011;11495;55.610;12.100;2022-07-22T08:41:19;3.20;;;1.87;;
22656;SDS011;11495;55.610;12.100;2022-07-22T08:43:47;4.37;;;1.73;;
22656;SDS011;11495;55.610;12.100;2022-07-22T08:46:12;6.32;;;2.25;;
22656;SDS011;11495;55.610;12.100;2022-07-22T08:48:38;4.43;;;1.92;;
22656;SDS011;11495;55.610;12.100;2022-07-22T08:51:04;5.60;;;2.22;;
22656;SDS011;11495;55.610;12.100;2022-07-22T08:53:31;3.60;;;1.60;;
22656;SDS011;11495;55.610;12.100;2022-07-22T08:55:56;6.72;;;2.33;;
22656;SDS011;11495;55.610;12.100;2022-07-22T08:58:23;3.78;;;2.00;;
22656;SDS011;11495;55.610;12.100;2022-07-22T09:01:03;4.25;;;1.90;;
22656;SDS011;11495;55.610;12.100;2022-07-22T09:06:16;4.53;;;2.08;;
22656;SDS011;11495;55.610;12.100;2022-07-22T09:08:50;5.62;;;2.15;;
22656;SDS011;11495;55.610;12.100;2022-07-22T09:11:28;6.20;;;2.28;;
22656;SDS011;11495;55.610;12.100;2022-07-22T09:13:55;4.15;;;1.70;;
22656;SDS011;11495;55.610;12.100;2022-07-22T09:16:44;5.22;;;2.20;;
22656;SDS011;11495;55.610;12.100;2022-07-22T09:19:12;4.95;;;2.37;;
22656;SDS011;11495;55.610;12.100;2022-07-22T09:21:38;5.75;;;2.00;;
22656;SDS011;11495;55.610;12.100;2022-07-22T09:26:54;6.07;;;2.53;;
22656;SDS011;11495;55.610;12.100;2022-07-22T09:29:21;5.22;;;2.12;;
22656;SDS011;11495;55.610;12.100;2022-07-22T09:31:49;5.45;;;2.33;;
22656;SDS011;11495;55.610;12.100;2022-07-22T09:34:30;5.25;;;2.00;;
22656;SDS011;11495;55.610;12.100;2022-07-22T09:36:57;4.22;;;1.87;;
22656;SDS011;11495;55.610;12.100;2022-07-22T09:39:24;5.85;;;1.98;;
22656;SDS011;11495;55.610;12.100;2022-07-22T09:42:00;4.65;;;2.10;;
22656;SDS011;11495;55.610;12.100;2022-07-22T09:44:27;4.80;;;1.98;;
22656;SDS011;11495;55.610;12.100;2022-07-22T09:46:53;6.70;;;2.50;;
22656;SDS011;11495;55.610;12.100;2022-07-22T09:49:35;4.55;;;1.90;;
22656;SDS011;11495;55.610;12.100;2022-07-22T09:52:06;2.78;;;1.20;;
22656;SDS011;11495;55.610;12.100;2022-07-22T09:54:32;5.62;;;1.85;;
22656;SDS011;11495;55.610;12.100;2022-07-22T09:56:58;5.72;;;1.95;;
22656;SDS011;11495;55.610;12.100;2022-07-22T09:59:24;6.43;;;2.05;;
22656;SDS011;11495;55.610;12.100;2022-07-22T10:01:51;3.25;;;1.70;;
22656;SDS011;11495;55.610;12.100;2022-07-22T10:06:49;7.65;;;2.10;;
22656;SDS011;11495;55.610;12.100;2022-07-22T10:09:16;5.70;;;1.87;;
22656;SDS011;11495;55.610;12.100;2022-07-22T10:11:42;8.02;;;2.78;;
22656;SDS011;11495;55.610;12.100;2022-07-22T10:14:12;5.55;;;2.10;;
22656;SDS011;11495;55.610;12.100;2022-07-22T10:16:39;6.37;;;2.55;;
22656;SDS011;11495;55.610;12.100;2022-07-22T10:19:05;5.28;;;2.40;;
22656;SDS011;11495;55.610;12.100;2022-07-22T10:21:32;5.03;;;1.90;;
22656;SDS011;11495;55.610;12.100;2022-07-22T10:24:12;5.95;;;2.45;;
22656;SDS011;11495;55.610;12.100;2022-07-22T10:26:46;6.37;;;2.50;;
22656;SDS011;11495;55.610;12.100;2022-07-22T10:32:15;7.47;;;2.20;;
22656;SDS011;11495;55.610;12.100;2022-07-22T10:45:32;4.50;;;2.22;;
22656;SDS011;11495;55.610;12.100;2022-07-22T10:48:09;7.50;;;2.70;;
22656;SDS011;11495;55.610;12.100;2022-07-22T10:53:20;4.43;;;1.60;;
22656;SDS011;11495;55.610;12.100;2022-07-22T11:00:59;4.47;;;2.05;;
22656;SDS011;11495;55.610;12.100;2022-07-22T11:03:29;4.22;;;1.83;;
22656;SDS011;11495;55.610;12.100;2022-07-22T11:05:56;4.40;;;2.03;;
22656;SDS011;11495;55.610;12.100;2022-07-22T11:08:21;10.98;;;2.78;;
22656;SDS011;11495;55.610;12.100;2022-07-22T11:10:50;8.13;;;2.80;;
22656;SDS011;11495;55.610;12.100;2022-07-22T11:13:38;10.85;;;2.87;;
22656;SDS011;11495;55.610;12.100;2022-07-22T11:18:44;5.25;;;1.98;;
22656;SDS011;11495;55.610;12.100;2022-07-22T11:21:09;5.93;;;2.30;;
22656;SDS011;11495;55.610;12.100;2022-07-22T11:23:38;2.87;;;1.83;;
22656;SDS011;11495;55.610;12.100;2022-07-22T11:26:05;6.37;;;2.30;;
22656;SDS011;11495;55.610;12.100;2022-07-22T11:28:31;9.07;;;1.87;;
22656;SDS011;11495;55.610;12.100;2022-07-22T11:31:09;7.37;;;2.28;;
22656;SDS011;11495;55.610;12.100;2022-07-22T11:33:38;5.15;;;1.98;;
22656;SDS011;11495;55.610;12.100;2022-07-22T11:36:05;5.07;;;1.92;;
22656;SDS011;11495;55.610;12.100;2022-07-22T11:41:08;5.22;;;1.80;;
22656;SDS011;11495;55.610;12.100;2022-07-22T11:43:43;8.75;;;2.08;;
22656;SDS011;11495;55.610;12.100;2022-07-22T11:46:14;4.90;;;2.10;;
22656;SDS011;11495;55.610;12.100;2022-07-22T11:48:41;7.55;;;2.12;;
22656;SDS011;11495;55.610;12.100;2022-07-22T11:51:08;11.05;;;1.70;;
22656;SDS011;11495;55.610;12.100;2022-07-22T11:53:37;8.75;;;2.15;;
22656;SDS011;11495;55.610;12.100;2022-07-22T11:56:05;4.03;;;1.98;;
22656;SDS011;11495;55.610;12.100;2022-07-22T12:01:05;6.90;;;1.73;;
22656;SDS011;11495;55.610;12.100;2022-07-22T12:03:36;3.67;;;1.65;;
22656;SDS011;11495;55.610;12.100;2022-07-22T12:06:03;3.62;;;1.50;;
22656;SDS011;11495;55.610;12.100;2022-07-22T12:08:31;4.90;;;1.70;;
22656;SDS011;11495;55.610;12.100;2022-07-22T12:10:57;4.80;;;1.52;;
22656;SDS011;11495;55.610;12.100;2022-07-22T12:13:33;7.00;;;1.73;;
22656;SDS011;11495;55.610;12.100;2022-07-22T12:15:58;6.20;;;2.17;;
22656;SDS011;11495;55.610;12.100;2022-07-22T12:18:25;8.32;;;2.08;;
22656;SDS011;11495;55.610;12.100;2022-07-22T12:20:52;8.60;;;2.15;;
22656;SDS011;11495;55.610;12.100;2022-07-22T12:23:20;9.88;;;2.60;;
22656;SDS011;11495;55.610;12.100;2022-07-22T12:25:54;11.63;;;2.53;;
22656;SDS011;11495;55.610;12.100;2022-07-22T12:28:24;9.68;;;2.35;;
22656;SDS011;11495;55.610;12.100;2022-07-22T12:30:51;5.37;;;2.15;;
22656;SDS011;11495;55.610;12.100;2022-07-22T12:33:18;6.93;;;2.08;;
22656;SDS011;11495;55.610;12.100;2022-07-22T12:35:57;8.32;;;2.55;;
22656;SDS011;11495;55.610;12.100;2022-07-22T12:38:27;4.22;;;1.92;;
22656;SDS011;11495;55.610;12.100;2022-07-22T12:40:53;3.78;;;1.58;;
22656;SDS011;11495;55.610;12.100;2022-07-22T12:43:23;5.15;;;1.92;;
22656;SDS011;11495;55.610;12.100;2022-07-22T12:45:49;6.78;;;2.35;;
22656;SDS011;11495;55.610;12.100;2022-07-22T12:48:15;6.03;;;2.17;;
22656;SDS011;11495;55.610;12.100;2022-07-22T12:50:43;8.93;;;1.90;;
22656;SDS011;11495;55.610;12.100;2022-07-22T12:53:10;8.07;;;2.10;;
22656;SDS011;11495;55.610;12.100;2022-07-22T12:55:58;3.80;;;1.80;;
22656;SDS011;11495;55.610;12.100;2022-07-22T12:58:29;5.40;;;1.62;;
22656;SDS011;11495;55.610;12.100;2022-07-22T13:00:57;8.32;;;2.12;;
22656;SDS011;11495;55.610;12.100;2022-07-22T13:03:24;6.62;;;1.83;;
22656;SDS011;11495;55.610;12.100;2022-07-22T13:05:56;5.05;;;1.62;;
22656;SDS011;11495;55.610;12.100;2022-07-22T13:08:23;7.62;;;2.28;;
22656;SDS011;11495;55.610;12.100;2022-07-22T13:10:49;6.22;;;2.05;;
22656;SDS011;11495;55.610;12.100;2022-07-22T13:13:16;5.97;;;1.95;;
22656;SDS011;11495;55.610;12.100;2022-07-22T13:15:41;5.37;;;1.77;;
22656;SDS011;11495;55.610;12.100;2022-07-22T13:18:07;9.27;;;2.35;;
22656;SDS011;11495;55.610;12.100;2022-07-22T13:20:32;6.18;;;2.08;;
22656;SDS011;11495;55.610;12.100;2022-07-22T13:22:58;4.90;;;1.95;;
22656;SDS011;11495;55.610;12.100;2022-07-22T13:25:24;6.10;;;1.85;;
22656;SDS011;11495;55.610;12.100;2022-07-22T13:27:51;5.00;;;1.67;;
22656;SDS011;11495;55.610;12.100;2022-07-22T13:30:18;5.72;;;2.30;;
22656;SDS011;11495;55.610;12.100;2022-07-22T13:32:43;5.32;;;1.75;;
22656;SDS011;11495;55.610;12.100;2022-07-22T13:35:09;5.87;;;1.67;;
22656;SDS011;11495;55.610;12.100;2022-07-22T13:37:34;6.82;;;1.87;;
22656;SDS011;11495;55.610;12.100;2022-07-22T13:40:00;8.65;;;2.40;;
22656;SDS011;11495;55.610;12.100;2022-07-22T13:42:26;4.90;;;1.73;;
22656;SDS011;11495;55.610;12.100;2022-07-22T13:44:51;7.30;;;1.65;;
22656;SDS011;11495;55.610;12.100;2022-07-22T13:47:17;7.37;;;2.50;;
22656;SDS011;11495;55.610;12.100;2022-07-22T13:49:43;9.10;;;2.85;;
22656;SDS011;11495;55.610;12.100;2022-07-22T13:52:11;12.10;;;2.70;;
22656;SDS011;11495;55.610;12.100;2022-07-22T13:54:37;5.65;;;2.08;;
22656;SDS011;11495;55.610;12.100;2022-07-22T13:57:03;6.65;;;1.85;;
22656;SDS011;11495;55.610;12.100;2022-07-22T13:59:29;5.95;;;1.65;;
22656;SDS011;11495;55.610;12.100;2022-07-22T14:01:55;11.55;;;2.65;;
22656;SDS011;11495;55.610;12.100;2022-07-22T14:04:21;7.37;;;2.05;;
22656;SDS011;11495;55.610;12.100;2022-07-22T14:06:47;5.93;;;2.17;;
22656;SDS011;11495;55.610;12.100;2022-07-22T14:09:13;5.68;;;2.30;;
22656;SDS011;11495;55.610;12.100;2022-07-22T14:11:38;3.33;;;1.58;;
22656;SDS011;11495;55.610;12.100;2022-07-22T14:14:04;6.35;;;2.25;;
22656;SDS011;11495;55.610;12.100;2022-07-22T14:16:31;3.67;;;1.70;;
22656;SDS011;11495;55.610;12.100;2022-07-22T14:19:01;5.37;;;2.45;;
22656;SDS011;11495;55.610;12.100;2022-07-22T14:21:29;8.48;;;2.58;;
22656;SDS011;11495;55.610;12.100;2022-07-22T14:23:55;8.82;;;2.55;;
22656;SDS011;11495;55.610;12.100;2022-07-22T14:26:20;4.95;;;2.78;;
22656;SDS011;11495;55.610;12.100;2022-07-22T14:28:47;10.80;;;5.30;;
22656;SDS011;11495;55.610;12.100;2022-07-22T14:31:12;7.80;;;4.60;;
22656;SDS011;11495;55.610;12.100;2022-07-22T14:33:38;6.65;;;3.20;;
22656;SDS011;11495;55.610;12.100;2022-07-22T14:36:03;6.35;;;2.40;;
22656;SDS011;11495;55.610;12.100;2022-07-22T14:38:29;6.75;;;2.62;;
22656;SDS011;11495;55.610;12.100;2022-07-22T14:40:54;10.40;;;2.85;;
22656;SDS011;11495;55.610;12.100;2022-07-22T14:43:20;21.58;;;19.27;;
22656;SDS011;11495;55.610;12.100;2022-07-22T14:45:45;23.48;;;15.32;;
22656;SDS011;11495;55.610;12.100;2022-07-22T14:48:11;12.02;;;4.85;;
22656;SDS011;11495;55.610;12.100;2022-07-22T14:50:36;11.85;;;8.63;;
22656;SDS011;11495;55.610;12.100;2022-07-22T14:53:02;25.95;;;18.75;;
22656;SDS011;11495;55.610;12.100;2022-07-22T14:55:30;14.82;;;10.10;;
22656;SDS011;11495;55.610;12.100;2022-07-22T14:57:55;12.25;;;8.63;;
22656;SDS011;11495;55.610;12.100;2022-07-22T15:00:21;8.55;;;5.93;;
22656;SDS011;11495;55.610;12.100;2022-07-22T15:02:47;21.05;;;15.95;;
22656;SDS011;11495;55.610;12.100;2022-07-22T15:05:12;12.05;;;8.38;;
22656;SDS011;11495;55.610;12.100;2022-07-22T15:07:38;24.55;;;18.75;;